Time;durP1;ratioP1;P1;durP2;ratioP2;P2;SDS_P1;SDS_P2;PMS_P1;PMS_P2;Temp;Humidity;BMP_temperature;BMP_pressure;BME280_temperature;BME280_humidity;BME280_pressure;Samples;Min_cycle;Max_cycle;Signal;HPM_P1;HPM_P2
2023/12/05 00:01:12;;;;;;;27.58;15.70;;;;;;;1.98;100.00;99656.25;5056463;28;20025;-70
2023/12/05 00:03:37;;;;;;;29.48;15.60;;;;;;;2.00;100.00;99649.06;5055806;28;20025;-70
2023/12/05 00:06:08;;;;;;;26.60;15.07;;;;;;;2.00;100.00;99649.06;5067259;28;20435;-70
2023/12/05 00:08:33;;;;;;;28.95;15.43;;;;;;;2.02;100.00;99652.50;5063930;28;20067;-70
2023/12/05 00:11:02;;;;;;;27.40;15.65;;;;;;;2.02;100.00;99647.19;5060271;28;20021;-70
2023/12/05 00:13:27;;;;;;;28.80;15.80;;;;;;;2.02;100.00;99643.66;5048730;28;20043;-74
2023/12/05 00:15:52;;;;;;;26.08;14.65;;;;;;;2.03;100.00;99651.53;5053628;28;20081;-74
2023/12/05 00:18:17;;;;;;;26.65;14.85;;;;;;;2.05;100.00;99649.66;5057085;28;20078;-74
2023/12/05 00:20:43;;;;;;;28.45;16.10;;;;;;;2.05;100.00;99647.00;5053096;28;20033;-73
2023/12/05 00:23:08;;;;;;;25.92;14.65;;;;;;;2.05;100.00;99647.00;5047374;28;20077;-74
2023/12/05 00:25:33;;;;;;;30.25;15.98;;;;;;;2.05;100.00;99639.06;5050610;28;20444;-74
2023/12/05 00:27:58;;;;;;;31.02;17.02;;;;;;;2.07;100.00;99638.97;5050341;28;20089;-74
2023/12/05 00:30:24;;;;;;;28.25;15.90;;;;;;;2.09;100.00;99640.59;5046008;28;20033;-74
2023/12/05 00:32:49;;;;;;;29.50;16.23;;;;;;;2.09;100.00;99635.28;5056104;28;20452;-74
2023/12/05 00:35:16;;;;;;;27.60;14.40;;;;;;;2.10;100.00;99642.28;5051281;28;20086;-73
2023/12/05 00:37:41;;;;;;;29.77;15.63;;;;;;;2.08;100.00;99640.69;5050441;28;20024;-74
2023/12/05 00:40:07;;;;;;;28.38;15.32;;;;;;;2.08;100.00;99646.81;5053196;28;20442;-74
2023/12/05 00:42:32;;;;;;;31.08;16.17;;;;;;;2.08;100.00;99638.03;5051588;28;20046;-73
2023/12/05 00:44:58;;;;;;;27.50;15.75;;;;;;;2.09;100.00;99631.78;5053500;28;20368;-74
2023/12/05 00:47:23;;;;;;;30.25;18.25;;;;;;;2.10;100.00;99630.84;5046860;28;20122;-74
2023/12/05 00:49:48;;;;;;;29.38;16.30;;;;;;;2.10;100.00;99631.69;5050356;28;20123;-73
2023/12/05 00:52:14;;;;;;;29.25;16.27;;;;;;;2.12;100.00;99625.44;5049952;28;20040;-73
2023/12/05 00:54:39;;;;;;;30.02;18.08;;;;;;;2.12;100.00;99626.28;5053981;28;20445;-74
2023/12/05 00:57:04;;;;;;;28.73;16.80;;;;;;;2.13;100.00;99635.94;5060101;28;20028;-74
2023/12/05 00:59:30;;;;;;;29.10;15.90;;;;;;;2.13;100.00;99635.09;5049368;28;20034;-74
2023/12/05 01:01:55;;;;;;;28.48;16.23;;;;;;;2.16;100.00;99632.28;5040713;28;20024;-74
2023/12/05 01:04:20;;;;;;;30.92;17.52;;;;;;;2.17;100.00;99629.53;5040891;28;20108;-74
2023/12/05 01:06:45;;;;;;;28.73;16.00;;;;;;;2.20;100.00;99636.47;5045418;28;20036;-74
2023/12/05 01:09:11;;;;;;;29.67;17.42;;;;;;;2.20;100.00;99631.16;5044164;28;20024;-74
2023/12/05 01:11:36;;;;;;;29.88;16.15;;;;;;;2.18;100.00;99633.91;5050104;28;20454;-74
2023/12/05 01:14:02;;;;;;;28.98;17.08;;;;;;;2.19;100.00;99627.63;5049248;28;20029;-73
2023/12/05 01:16:27;;;;;;;29.38;16.50;;;;;;;2.20;100.00;99625.88;5049918;28;20704;-74
2023/12/05 01:18:52;;;;;;;28.58;16.55;;;;;;;2.21;100.00;99627.53;5046900;28;20021;-74
2023/12/05 01:21:18;;;;;;;31.00;15.63;;;;;;;2.21;100.00;99617.81;5048096;28;20480;-74
2023/12/05 01:23:43;;;;;;;30.48;17.10;;;;;;;2.22;100.00;99613.34;5050571;28;20056;-71
2023/12/05 01:26:08;;;;;;;29.20;17.20;;;;;;;2.24;100.00;99622.94;5063574;28;20139;-71
2023/12/05 01:28:33;;;;;;;28.30;15.77;;;;;;;2.24;100.00;99619.41;5062564;28;20044;-70
2023/12/05 01:30:59;;;;;;;29.90;17.00;;;;;;;2.25;100.00;99621.97;5058109;28;20048;-70
2023/12/05 01:33:24;;;;;;;28.50;16.10;;;;;;;2.26;100.00;99623.69;5065444;28;20037;-71
2023/12/05 01:35:49;;;;;;;31.45;16.38;;;;;;;2.26;100.00;99620.19;5066371;28;20032;-71
2023/12/05 01:38:18;;;;;;;27.55;15.93;;;;;;;2.27;100.00;99619.25;5061373;28;20033;-70
2023/12/05 01:40:43;;;;;;;27.42;15.48;;;;;;;2.27;100.00;99617.44;5066067;28;20056;-70
2023/12/05 01:43:08;;;;;;;28.75;15.05;;;;;;;2.31;100.00;99611.97;5057892;28;20040;-70
2023/12/05 01:45:34;;;;;;;30.88;17.40;;;;;;;2.29;100.00;99620.00;5059922;28;20041;-71
2023/12/05 01:47:59;;;;;;;31.25;16.20;;;;;;;2.29;100.00;99616.53;5067969;28;20036;-70
2023/12/05 01:50:27;;;;;;;27.98;15.68;;;;;;;2.29;100.00;99620.00;5074240;28;20044;-71
2023/12/05 01:52:56;;;;;;;30.52;16.27;;;;;;;2.31;100.00;99618.09;5064270;28;20476;-72
2023/12/05 01:55:21;;;;;;;28.08;15.77;;;;;;;2.33;100.00;99625.97;5059008;28;20401;-71
2023/12/05 01:57:47;;;;;;;30.45;17.20;;;;;;;2.33;100.00;99618.91;5068453;28;20523;-71
2023/12/05 02:00:17;;;;;;;29.08;16.58;;;;;;;2.35;100.00;99632.06;5066856;28;20028;-73
2023/12/05 02:02:42;;;;;;;31.55;16.77;;;;;;;2.36;100.00;99639.06;5066269;28;20151;-72
2023/12/05 02:05:13;;;;;;;29.65;16.13;;;;;;;2.37;100.00;99639.00;5069602;28;20017;-72
2023/12/05 02:07:38;;;;;;;30.40;16.67;;;;;;;2.38;100.00;99637.19;5063670;28;20067;-72
2023/12/05 02:10:04;;;;;;;30.40;17.42;;;;;;;2.38;100.00;99638.03;5062118;28;20049;-72
2023/12/05 02:12:29;;;;;;;29.83;16.42;;;;;;;2.38;100.00;99626.56;5064182;28;20020;-72
2023/12/05 02:14:55;;;;;;;29.67;18.05;;;;;;;2.39;100.00;99636.25;5066931;28;20021;-72
2023/12/05 02:17:34;;;;;;;31.95;17.10;;;;;;;2.38;100.00;99635.38;5058724;28;20024;-71
2023/12/05 02:20:32;;;;;;;30.83;17.40;;;;;;;2.41;100.00;99634.34;5066262;28;20072;-72
2023/12/05 02:23:35;;;;;;;32.17;16.05;;;;;;;2.42;100.00;99634.25;5069340;28;20020;-72
2023/12/05 02:26:16;;;;;;;30.58;18.70;;;;;;;2.41;100.00;99632.53;5065842;28;20524;-72
2023/12/05 02:28:42;;;;;;;29.58;17.13;;;;;;;2.41;100.00;99629.88;5072685;28;20115;-72
2023/12/05 02:31:07;;;;;;;29.98;17.15;;;;;;;2.42;100.00;99628.94;5071862;28;20052;-72
2023/12/05 02:33:33;;;;;;;30.60;17.20;;;;;;;2.44;100.00;99628.84;5063512;28;20017;-74
2023/12/05 02:36:13;;;;;;;31.35;19.80;;;;;;;2.44;100.00;99627.03;5048638;28;20037;-73
2023/12/05 02:39:08;;;;;;;30.58;18.00;;;;;;;2.47;100.00;99627.81;5044513;28;20028;-74
2023/12/05 02:41:36;;;;;;;35.47;17.25;;;;;;;2.45;100.00;99626.09;5048650;28;20129;-73
2023/12/05 02:44:06;;;;;;;31.83;18.63;;;;;;;2.48;100.00;99635.69;5051881;28;20029;-71
2023/12/05 02:46:32;;;;;;;;;;;;;;;2.53;100.00;99627.47;5054479;28;20558;-71
2023/12/05 02:48:59;;;;;;;28.73;16.25;;;;;;;2.48;100.00;99624.25;5056351;28;19923;-70
2023/12/05 02:51:25;;;;;;;30.13;18.52;;;;;;;2.49;100.00;99623.28;5051378;28;20084;-70
2023/12/05 02:53:50;;;;;;;31.67;18.30;;;;;;;2.51;100.00;99629.34;5046512;28;20092;-70
2023/12/05 02:56:17;;;;;;;33.53;17.92;;;;;;;2.52;100.00;99620.44;5063909;28;20170;-71
2023/12/05 02:58:42;;;;;;;30.50;18.55;;;;;;;2.52;100.00;99617.78;5057965;28;20078;-70
2023/12/05 03:01:08;;;;;;;31.23;18.48;;;;;;;2.53;100.00;99616.84;5059096;28;20024;-70
2023/12/05 03:03:33;;;;;;;31.23;18.75;;;;;;;2.53;100.00;99616.84;5065945;28;20021;-72
2023/12/05 03:05:58;;;;;;;31.38;19.00;;;;;;;2.54;100.00;99614.09;5068377;28;20043;-72
2023/12/05 03:08:24;;;;;;;33.10;19.60;;;;;;;2.54;100.00;99602.66;5068158;28;20031;-72
2023/12/05 03:10:49;;;;;;;31.63;17.67;;;;;;;2.54;100.00;99603.50;5070838;28;20017;-72
2023/12/05 03:13:14;;;;;;;30.95;18.38;;;;;;;2.57;100.00;99615.72;5064592;28;20407;-74
2023/12/05 03:15:40;;;;;;;31.65;18.88;;;;;;;2.57;100.00;99608.59;5055645;28;20039;-74
2023/12/05 03:18:05;;;;;;;30.65;16.77;;;;;;;2.57;100.00;99602.47;5050981;28;20033;-73
2023/12/05 03:20:30;;;;;;;30.63;17.70;;;;;;;2.57;100.00;99607.75;5054002;28;20040;-73
2023/12/05 03:22:55;;;;;;;31.52;18.45;;;;;;;2.57;100.00;99608.59;5044714;28;20079;-70
2023/12/05 03:25:21;;;;;;;30.90;18.65;;;;;;;2.58;100.00;99612.13;5041166;28;20101;-74
2023/12/05 03:27:46;;;;;;;28.85;17.25;;;;;;;2.57;100.00;99608.59;5050493;28;20028;-74
2023/12/05 03:30:12;;;;;;;32.30;18.65;;;;;;;2.58;100.00;99606.81;5047460;28;20032;-73
2023/12/05 03:32:37;;;;;;;32.90;19.20;;;;;;;2.58;100.00;99605.03;5044314;28;20032;-74
2023/12/05 03:35:03;;;;;;;31.83;17.23;;;;;;;2.57;100.00;99605.94;5043260;28;20028;-74
2023/12/05 03:37:28;;;;;;;33.15;18.67;;;;;;;2.58;100.00;99620.09;5044764;28;20051;-74
2023/12/05 03:39:54;;;;;;;31.90;20.23;;;;;;;2.58;100.00;99612.13;5049524;28;20039;-73
2023/12/05 03:42:19;;;;;;;31.33;18.90;;;;;;;2.60;100.00;99615.53;5047868;28;20051;-74
2023/12/05 03:44:45;;;;;;;31.75;18.88;;;;;;;2.60;100.00;99620.84;5050135;28;20108;-72
2023/12/05 03:47:10;;;;;;;33.78;20.55;;;;;;;2.60;100.00;99623.50;5050494;28;20455;-73
2023/12/05 03:49:35;;;;;;;33.10;20.08;;;;;;;2.59;100.00;99622.66;5058988;28;20614;-74
2023/12/05 03:52:01;;;;;;;32.58;19.65;;;;;;;2.60;100.00;99626.16;5054934;28;20029;-73
2023/12/05 03:54:27;;;;;;;32.33;18.58;;;;;;;2.60;100.00;99628.78;5056067;28;20036;-70
2023/12/05 03:56:52;;;;;;;32.40;19.58;;;;;;;2.61;100.00;99633.16;5067820;28;20036;-70
2023/12/05 03:59:17;;;;;;;35.03;20.42;;;;;;;2.61;100.00;99633.16;5063625;28;20032;-70
2023/12/05 04:01:43;;;;;;;34.10;20.05;;;;;;;2.61;100.00;99627.88;5070825;28;20115;-71
2023/12/05 04:04:08;;;;;;;34.38;21.58;;;;;;;2.60;100.00;99629.63;5061148;28;20029;-70
2023/12/05 04:06:33;;;;;;;32.40;19.60;;;;;;;2.61;100.00;99635.81;5064203;28;20042;-70
2023/12/05 04:08:58;;;;;;;34.63;20.92;;;;;;;2.62;100.00;99642.81;5060222;28;20056;-70
2023/12/05 04:11:32;;;;;;;34.30;20.38;;;;;;;2.64;100.00;99643.59;5058688;28;20067;-70
2023/12/05 04:13:58;;;;;;;32.25;19.00;;;;;;;2.64;100.00;99638.28;5068731;28;20025;-72
2023/12/05 04:16:24;;;;;;;34.38;20.80;;;;;;;2.65;100.00;99645.31;5068515;28;20024;-71
2023/12/05 04:18:49;;;;;;;35.08;20.52;;;;;;;2.67;100.00;99647.88;5064872;28;20022;-71
2023/12/05 04:21:16;;;;;;;35.65;21.15;;;;;;;2.68;100.00;99645.13;5072661;28;20043;-71
2023/12/05 04:23:42;;;;;;;33.78;21.38;;;;;;;2.68;100.00;99653.06;5066204;28;20044;-71
2023/12/05 04:26:07;;;;;;;34.22;21.58;;;;;;;2.70;100.00;99655.63;5061834;28;20100;-71
2023/12/05 04:28:33;;;;;;;34.60;19.98;;;;;;;2.72;100.00;99657.22;5067423;28;20032;-72
2023/12/05 04:30:58;;;;;;;33.90;20.95;;;;;;;2.71;100.00;99655.53;5065536;28;20043;-72
2023/12/05 04:33:24;;;;;;;36.72;22.05;;;;;;;2.73;100.00;99653.63;5070127;28;20044;-71
2023/12/05 04:35:49;;;;;;;35.17;21.42;;;;;;;2.72;100.00;99654.56;5065559;28;20069;-72
2023/12/05 04:38:15;;;;;;;33.00;20.80;;;;;;;2.73;100.00;99653.63;5070888;28;20056;-71
2023/12/05 04:40:41;;;;;;;34.05;21.48;;;;;;;2.74;100.00;99665.13;5067685;28;20289;-72
2023/12/05 04:43:06;;;;;;;34.05;22.70;;;;;;;2.74;100.00;99658.00;5060797;28;20085;-71
2023/12/05 04:45:31;;;;;;;36.97;21.30;;;;;;;2.76;100.00;99665.88;5068180;28;20108;-71
2023/12/05 04:47:56;;;;;;;35.00;21.63;;;;;;;2.76;100.00;99665.88;5074929;28;20181;-71
2023/12/05 04:50:22;;;;;;;39.40;24.83;;;;;;;2.77;100.00;99662.28;5062968;28;20052;-72
2023/12/05 04:52:47;;;;;;;36.42;23.08;;;;;;;2.77;100.00;99676.41;5064053;28;20028;-72
2023/12/05 04:55:12;;;;;;;36.95;21.50;;;;;;;2.76;100.00;99669.38;5064573;28;20042;-71
2023/12/05 04:57:38;;;;;;;34.15;22.33;;;;;;;2.77;100.00;99673.75;5063917;28;20218;-72
2023/12/05 05:00:05;;;;;;;34.30;22.63;;;;;;;2.79;100.00;99677.16;5070739;28;20039;-71
2023/12/05 05:02:30;;;;;;;33.25;21.60;;;;;;;2.80;100.00;99680.66;5064023;28;20072;-71
2023/12/05 05:04:55;;;;;;;36.95;23.70;;;;;;;2.79;100.00;99677.16;5068666;28;20032;-72
2023/12/05 05:07:20;;;;;;;35.55;21.70;;;;;;;2.83;100.00;99682.28;5069378;28;20439;-71
2023/12/05 05:09:46;;;;;;;34.03;22.17;;;;;;;2.83;100.00;99682.28;5075020;28;20033;-71
2023/12/05 05:12:11;;;;;;;35.22;22.27;;;;;;;2.82;100.00;99681.41;5064502;28;20123;-71
2023/12/05 05:14:36;;;;;;;36.05;22.42;;;;;;;2.83;100.00;99685.78;5074813;28;20029;-71
2023/12/05 05:17:08;;;;;;;36.35;23.17;;;;;;;2.84;100.00;99683.97;5063750;28;20013;-71
2023/12/05 05:19:33;;;;;;;35.88;22.45;;;;;;;2.84;100.00;99683.97;5077997;28;20119;-71
2023/12/05 05:21:59;;;;;;;34.17;21.45;;;;;;;2.84;100.00;99686.63;5066790;28;20060;-72
2023/12/05 05:24:24;;;;;;;35.85;21.25;;;;;;;2.86;100.00;99687.41;5072318;28;20031;-71
2023/12/05 05:26:49;;;;;;;35.10;21.02;;;;;;;2.87;100.00;99694.41;5070633;28;20084;-72
2023/12/05 05:29:14;;;;;;;34.65;20.58;;;;;;;2.87;100.00;99695.28;5071106;28;20095;-71
2023/12/05 05:31:40;;;;;;;33.88;20.98;;;;;;;2.87;100.00;99692.63;5060506;28;20035;-72
2023/12/05 05:34:05;;;;;;;35.42;21.88;;;;;;;2.88;100.00;99690.81;5067445;28;20021;-71
2023/12/05 05:36:30;;;;;;;32.05;20.40;;;;;;;2.87;100.00;99695.28;5066466;28;20028;-72
2023/12/05 05:38:56;;;;;;;34.97;21.27;;;;;;;2.89;100.00;99697.84;5069137;28;20063;-72
2023/12/05 05:41:24;;;;;;;33.40;21.02;;;;;;;2.89;100.00;99690.72;5072520;28;20039;-71
2023/12/05 05:43:49;;;;;;;33.72;20.45;;;;;;;2.89;100.00;99695.19;5070213;28;20021;-72
2023/12/05 05:46:15;;;;;;;34.88;21.10;;;;;;;2.91;100.00;99695.94;5065246;28;20121;-71
2023/12/05 05:48:40;;;;;;;36.70;22.13;;;;;;;2.91;100.00;99698.59;5074163;28;20040;-71
2023/12/05 05:51:06;;;;;;;33.05;20.25;;;;;;;2.91;100.00;99696.78;5063656;28;20056;-71
2023/12/05 05:53:31;;;;;;;34.08;20.70;;;;;;;2.92;100.00;99700.31;5055860;28;20440;-71
2023/12/05 05:56:00;;;;;;;35.38;22.40;;;;;;;2.92;100.00;99700.31;5071188;28;20020;-72
2023/12/05 05:58:25;;;;;;;34.65;20.98;;;;;;;2.91;100.00;99702.09;5069459;28;20343;-71
2023/12/05 06:00:51;;;;;;;34.00;21.17;;;;;;;2.93;100.00;99697.56;5066351;28;20028;-72
2023/12/05 06:03:16;;;;;;;34.75;19.88;;;;;;;2.94;100.00;99698.41;5070084;28;20021;-72
2023/12/05 06:05:41;;;;;;;33.55;20.67;;;;;;;2.94;100.00;99698.41;5065344;28;20020;-71
2023/12/05 06:08:07;;;;;;;34.28;21.25;;;;;;;2.95;100.00;99702.78;5053150;28;20062;-71
2023/12/05 06:10:32;;;;;;;34.50;21.58;;;;;;;2.95;100.00;99697.47;5064758;28;20095;-72
2023/12/05 06:12:57;;;;;;;35.35;21.13;;;;;;;2.95;100.00;99708.94;5054607;28;20026;-71
2023/12/05 06:15:22;;;;;;;34.10;20.60;;;;;;;2.95;100.00;99703.63;5061607;28;20045;-72
2023/12/05 06:17:48;;;;;;;31.73;19.42;;;;;;;2.97;100.00;99703.53;5068784;28;20171;-71
2023/12/05 06:20:13;;;;;;;36.25;22.23;;;;;;;2.98;100.00;99707.91;5067600;28;20059;-71
2023/12/05 06:22:38;;;;;;;31.83;19.65;;;;;;;2.99;100.00;99709.59;5059859;28;20033;-72
2023/12/05 06:25:04;;;;;;;33.08;19.55;;;;;;;2.98;100.00;99721.16;5064939;28;20025;-72
2023/12/05 06:27:30;;;;;;;35.28;19.85;;;;;;;3.00;100.00;99721.91;5060601;28;20099;-72
2023/12/05 06:29:55;;;;;;;33.78;20.38;;;;;;;3.00;100.00;99721.91;5051980;28;20029;-72
2023/12/05 06:32:20;;;;;;;35.22;20.58;;;;;;;3.02;100.00;99735.97;5065015;28;20036;-71
2023/12/05 06:34:45;;;;;;;35.25;19.65;;;;;;;3.03;100.00;99734.16;5054804;28;20030;-73
2023/12/05 06:37:11;;;;;;;34.67;20.80;;;;;;;3.04;100.00;99734.06;5050459;28;20114;-73
2023/12/05 06:39:37;;;;;;;33.22;19.90;;;;;;;3.05;100.00;99735.78;5054162;28;20518;-73
2023/12/05 06:42:02;;;;;;;33.53;19.70;;;;;;;3.05;100.00;99740.25;5052277;28;20036;-73
2023/12/05 06:44:27;;;;;;;35.10;21.58;;;;;;;3.05;100.00;99746.41;5049366;28;20055;-73
2023/12/05 06:46:53;;;;;;;35.80;20.00;;;;;;;3.07;100.00;99748.97;5040737;28;20025;-73
2023/12/05 06:49:18;;;;;;;34.42;20.23;;;;;;;3.09;100.00;99741.75;5049033;28;20056;-73
2023/12/05 06:51:43;;;;;;;33.97;20.50;;;;;;;3.09;100.00;99752.34;5055062;28;20025;-73
2023/12/05 06:54:11;;;;;;;35.22;21.10;;;;;;;3.09;100.00;99755.03;5042702;28;20108;-74
2023/12/05 06:56:36;;;;;;;37.53;23.67;;;;;;;3.10;100.00;99754.09;5055730;28;20029;-74
2023/12/05 06:59:03;;;;;;;35.65;20.40;;;;;;;3.11;100.00;99759.28;5041048;28;20404;-73
2023/12/05 07:01:29;;;;;;;35.38;20.98;;;;;;;3.11;100.00;99761.94;5041250;28;20050;-73
2023/12/05 07:03:54;;;;;;;32.55;18.98;;;;;;;3.12;100.00;99762.81;5038735;28;20020;-74
2023/12/05 07:06:19;;;;;;;39.50;22.40;;;;;;;3.12;100.00;99763.66;5045650;28;20435;-73
2023/12/05 07:08:44;;;;;;;32.45;21.08;;;;;;;3.13;100.00;99759.19;5048262;28;20114;-74
2023/12/05 07:11:10;;;;;;;36.72;20.25;;;;;;;3.13;100.00;99776.00;5048962;28;20024;-74
2023/12/05 07:13:37;;;;;;;36.35;20.85;;;;;;;3.12;100.00;99768.97;5045246;28;20201;-73
2023/12/05 07:16:03;;;;;;;35.58;18.98;;;;;;;3.13;100.00;99777.78;5055295;28;20103;-74
2023/12/05 07:18:29;;;;;;;36.38;21.80;;;;;;;3.13;100.00;99773.34;5049711;28;20345;-74
2023/12/05 07:20:54;;;;;;;35.80;22.15;;;;;;;3.14;100.00;99777.69;5053506;28;20020;-73
2023/12/05 07:23:19;;;;;;;35.40;19.67;;;;;;;3.13;100.00;99783.09;5053222;28;20431;-74
2023/12/05 07:25:45;;;;;;;35.45;20.15;;;;;;;3.11;100.00;99785.00;5045441;28;20108;-74
2023/12/05 07:28:10;;;;;;;36.38;21.88;;;;;;;3.10;100.00;99794.75;5043198;28;20035;-73
2023/12/05 07:30:35;;;;;;;36.95;21.23;;;;;;;3.08;100.00;99791.34;5046642;28;20025;-73
2023/12/05 07:33:01;;;;;;;33.03;19.15;;;;;;;3.08;100.00;99801.13;5053302;28;20021;-73
2023/12/05 07:35:26;;;;;;;38.13;21.25;;;;;;;3.07;100.00;99804.72;5054259;28;20032;-74
2023/12/05 07:37:51;;;;;;;34.60;20.17;;;;;;;3.05;100.00;99799.50;5057860;28;20438;-73
2023/12/05 07:40:17;;;;;;;34.67;20.25;;;;;;;3.05;100.00;99815.41;5044462;28;20679;-74
2023/12/05 07:42:44;;;;;;;35.22;19.52;;;;;;;3.04;100.00;99810.19;5039916;28;20028;-74
2023/12/05 07:45:12;;;;;;;36.13;20.27;;;;;;;3.02;100.00;99815.59;5035632;28;20094;-72
2023/12/05 07:47:37;;;;;;;34.75;19.98;;;;;;;3.01;100.00;99826.31;5042746;28;20039;-72
2023/12/05 07:50:02;;;;;;;37.72;22.35;;;;;;;3.00;100.00;99833.41;5046464;28;20075;-72
2023/12/05 07:52:28;;;;;;;35.50;21.38;;;;;;;2.99;100.00;99837.00;5048132;28;20515;-72
2023/12/05 07:54:53;;;;;;;35.85;20.08;;;;;;;2.99;100.00;99842.31;5049207;28;20032;-72
2023/12/05 07:57:22;;;;;;;35.67;21.42;;;;;;;2.98;100.00;99845.91;5046366;28;20024;-72
2023/12/05 07:59:50;;;;;;;32.83;20.40;;;;;;;2.95;100.00;99848.75;5044548;28;20112;-72
2023/12/05 08:02:16;;;;;;;35.63;22.45;;;;;;;2.94;100.00;99849.69;5052908;28;20399;-72
2023/12/05 08:04:41;;;;;;;34.17;19.75;;;;;;;2.91;100.00;99860.47;5044143;28;20036;-72
2023/12/05 08:07:07;;;;;;;37.53;22.52;;;;;;;2.90;100.00;99858.75;5049854;28;20032;-72
2023/12/05 08:09:32;;;;;;;37.45;20.67;;;;;;;2.89;100.00;99855.25;5048795;28;20040;-72
2023/12/05 08:11:57;;;;;;;36.03;20.80;;;;;;;2.88;100.00;99865.97;5048430;28;20051;-71
2023/12/05 08:14:23;;;;;;;37.22;23.10;;;;;;;2.88;100.00;99868.63;5058334;28;20384;-72
2023/12/05 08:16:48;;;;;;;36.50;22.55;;;;;;;2.86;100.00;99873.19;5054983;28;20059;-71
2023/12/05 08:19:14;;;;;;;39.22;24.98;;;;;;;2.84;100.00;99872.38;5058083;28;20484;-71
2023/12/05 08:21:39;;;;;;;35.22;20.02;;;;;;;2.83;100.00;99878.66;5055547;28;20100;-72
2023/12/05 08:24:05;;;;;;;39.30;22.80;;;;;;;2.82;100.00;99876.94;5050765;28;20065;-72
2023/12/05 08:26:31;;;;;;;35.22;21.20;;;;;;;2.79;100.00;99877.97;5047726;28;20518;-71
2023/12/05 08:28:58;;;;;;;39.80;21.95;;;;;;;2.78;100.00;99885.06;5046659;28;20033;-72
2023/12/05 08:31:24;;;;;;;38.28;21.38;;;;;;;2.78;100.00;99892.16;5047585;28;20058;-72
2023/12/05 08:33:49;;;;;;;38.50;23.17;;;;;;;2.79;100.00;99896.53;5055630;28;20024;-72
2023/12/05 08:36:14;;;;;;;37.67;21.65;;;;;;;2.78;100.00;99897.47;5058677;28;20025;-72
2023/12/05 08:38:40;;;;;;;35.97;21.60;;;;;;;2.77;100.00;99896.63;5048280;28;20017;-71
2023/12/05 08:41:05;;;;;;;38.30;22.73;;;;;;;2.77;100.00;99907.22;5046679;28;20029;-72
2023/12/05 08:43:30;;;;;;;39.40;23.08;;;;;;;2.76;100.00;99899.38;5056527;28;20402;-71
2023/12/05 08:45:56;;;;;;;40.88;25.13;;;;;;;2.77;100.00;99907.22;5056716;28;20058;-72
2023/12/05 08:48:21;;;;;;;38.00;21.77;;;;;;;2.78;100.00;99908.97;5047991;28;20365;-72
2023/12/05 08:50:46;;;;;;;37.58;21.90;;;;;;;2.77;100.00;99907.22;5058948;28;20048;-72
2023/12/05 08:53:12;;;;;;;37.00;22.98;;;;;;;2.75;100.00;99909.13;5057570;28;20136;-72
2023/12/05 08:55:37;;;;;;;38.17;22.55;;;;;;;2.73;100.00;99911.00;5073116;28;20077;-71
2023/12/05 08:58:02;;;;;;;37.97;22.15;;;;;;;2.73;100.00;99912.81;5058664;28;20052;-70
2023/12/05 09:00:28;;;;;;;36.53;21.65;;;;;;;2.71;100.00;99912.91;5061873;28;20083;-70
2023/12/05 09:02:56;;;;;;;37.88;21.80;;;;;;;2.72;100.00;99911.09;5061702;28;20056;-70
2023/12/05 09:05:23;;;;;;;36.78;21.88;;;;;;;2.69;100.00;99912.09;5051046;28;20025;-74
2023/12/05 09:07:48;;;;;;;38.78;24.40;;;;;;;2.69;100.00;99919.22;5053015;28;20112;-74
2023/12/05 09:10:13;;;;;;;40.17;23.63;;;;;;;2.70;100.00;99932.41;5045657;28;20124;-74
2023/12/05 09:12:39;;;;;;;37.88;22.95;;;;;;;2.69;100.00;99925.38;5056603;28;20485;-74
2023/12/05 09:15:04;;;;;;;38.00;22.25;;;;;;;2.67;100.00;99927.25;5063606;28;20075;-71
2023/12/05 09:17:31;;;;;;;37.88;23.30;;;;;;;2.69;100.00;99935.13;5067833;28;20239;-72
2023/12/05 09:19:57;;;;;;;42.85;24.42;;;;;;;2.69;100.00;99938.63;5073110;28;20075;-72
2023/12/05 09:22:22;;;;;;;37.97;23.35;;;;;;;2.69;100.00;99941.28;5066284;28;20017;-72
2023/12/05 09:24:47;;;;;;;35.53;21.17;;;;;;;2.69;100.00;99941.28;5064761;28;20150;-72
2023/12/05 09:27:13;;;;;;;38.72;23.90;;;;;;;2.68;100.00;99947.56;5068943;28;20124;-72
2023/12/05 09:29:38;;;;;;;37.67;21.48;;;;;;;2.68;100.00;99950.22;5071829;28;20082;-72
2023/12/05 09:32:04;;;;;;;38.33;22.42;;;;;;;2.67;100.00;99951.13;5063732;28;20017;-72
2023/12/05 09:34:30;;;;;;;38.05;22.70;;;;;;;2.70;100.00;99961.56;5068702;28;20095;-72
2023/12/05 09:36:55;;;;;;;39.90;22.02;;;;;;;2.70;100.00;99966.88;5073421;28;20116;-72
2023/12/05 09:39:21;;;;;;;41.47;23.15;;;;;;;2.71;100.00;99983.66;5071554;28;20128;-72
2023/12/05 09:42:01;;;;;;;39.30;21.98;;;;;;;2.71;100.00;99981.00;5073383;28;20088;-71
2023/12/05 09:44:29;;;;;;;38.00;21.65;;;;;;;2.71;100.00;99981.00;5071409;28;20044;-72
2023/12/05 09:46:57;;;;;;;35.47;21.55;;;;;;;2.72;100.00;99985.38;5069667;28;20021;-72
2023/12/05 09:49:26;;;;;;;37.72;20.30;;;;;;;2.71;100.00;99979.22;5063885;28;20064;-72
2023/12/05 09:51:52;;;;;;;35.97;19.95;;;;;;;2.70;100.00;99982.81;5062896;28;20028;-72
2023/12/05 09:54:18;;;;;;;37.72;20.83;;;;;;;2.72;100.00;99982.72;5068727;28;20035;-72
2023/12/05 09:56:44;;;;;;;38.13;21.00;;;;;;;2.72;100.00;99986.22;5076159;28;20025;-72
2023/12/05 09:59:10;;;;;;;37.50;20.67;;;;;;;2.75;100.00;99982.53;5070123;28;20056;-72
2023/12/05 10:01:36;;;;;;;38.55;21.08;;;;;;;2.78;100.00;99982.38;5069973;28;20104;-72
2023/12/05 10:04:02;;;;;;;38.88;21.48;;;;;;;2.79;100.00;99986.75;5075486;28;20024;-72
2023/12/05 10:06:32;;;;;;;41.92;22.17;;;;;;;2.79;100.00;99995.56;5075731;28;20651;-71
2023/12/05 10:08:58;;;;;;;38.30;21.80;;;;;;;2.80;100.00;99999.94;5072302;28;20787;-72
2023/12/05 10:11:27;;;;;;;36.72;20.83;;;;;;;2.80;100.00;100007.91;5078343;28;20021;-72
2023/12/05 10:13:53;;;;;;;37.30;22.13;;;;;;;2.85;100.00;100007.63;5073489;28;20146;-72
2023/12/05 10:16:19;;;;;;;37.55;21.02;;;;;;;2.87;100.00;100012.84;5064641;28;20049;-72
2023/12/05 10:18:46;;;;;;;36.95;23.80;;;;;;;2.90;100.00;100015.34;5074775;28;20086;-72
2023/12/05 10:21:12;;;;;;;43.20;26.85;;;;;;;2.91;100.00;100019.72;5076411;28;20037;-72
2023/12/05 10:23:38;;;;;;;44.17;26.58;;;;;;;2.94;100.00;100024.84;5066961;28;20035;-72
2023/12/05 10:26:04;;;;;;;48.03;28.27;;;;;;;2.97;100.00;100030.88;5064127;28;20030;-72
2023/12/05 10:28:29;;;;;;;41.20;22.95;;;;;;;3.01;100.00;100020.09;5056493;28;20107;-71
2023/12/05 10:30:55;;;;;;;43.50;23.88;;;;;;;3.04;100.00;100020.75;5055511;28;20021;-72
2023/12/05 10:33:21;;;;;;;38.00;22.63;;;;;;;3.06;100.00;100024.19;5053628;28;20047;-72
2023/12/05 10:35:47;;;;;;;39.33;22.55;;;;;;;3.08;100.00;100024.97;5050722;28;20247;-72
2023/12/05 10:38:17;;;;;;;39.28;21.45;;;;;;;3.09;100.00;100028.47;5053607;28;20112;-72
2023/12/05 10:40:50;;;;;;;42.17;23.60;;;;;;;3.07;100.00;100033.00;5051831;28;20067;-72
2023/12/05 10:43:17;;;;;;;38.38;23.55;;;;;;;3.03;100.00;100035.00;5052289;28;20048;-71
2023/12/05 10:45:42;;;;;;;41.20;22.33;;;;;;;3.05;100.00;100043.72;5057910;28;20016;-72
2023/12/05 10:48:12;;;;;;;35.03;21.50;;;;;;;3.07;100.00;100047.13;5056522;28;20031;-72
2023/12/05 10:50:39;;;;;;;35.45;20.65;;;;;;;3.10;100.00;100046.94;5056686;28;20053;-72
2023/12/05 10:53:05;;;;;;;32.75;18.70;;;;;;;3.14;100.00;100045.00;5057777;28;20028;-72
2023/12/05 10:55:30;;;;;;;35.15;18.45;;;;;;;3.10;100.00;100049.59;5052983;28;20040;-72
2023/12/05 10:57:56;;;;;;;31.48;16.80;;;;;;;3.08;100.00;100053.31;5056220;28;20028;-72
2023/12/05 11:00:22;;;;;;;29.98;15.45;;;;;;;3.07;100.00;100051.59;5051991;28;20481;-72
2023/12/05 11:02:48;;;;;;;31.23;15.52;;;;;;;3.09;100.00;100055.88;5055854;28;20100;-72
2023/12/05 11:05:14;;;;;;;31.65;15.50;;;;;;;3.11;100.00;100048.69;5049884;28;20117;-72
2023/12/05 11:07:40;;;;;;;32.03;16.52;;;;;;;3.15;100.00;100052.88;5039589;28;20024;-72
2023/12/05 11:10:06;;;;;;;29.50;15.15;;;;;;;3.18;100.00;100058.94;5037854;28;20036;-72
2023/12/05 11:12:33;;;;;;;29.05;15.75;;;;;;;3.19;100.00;100058.03;5044083;28;20116;-72